createdAt,value
2019-01-13T00:00:11.615Z,98.45
2019-01-13T00:01:06.218Z,98.45
2019-01-13T00:02:59.034Z,98.16
2019-01-13T00:03:58.868Z,98.54
2019-01-13T00:05:51.740Z,98.35
2019-01-13T00:06:51.640Z,98.45
2019-01-13T00:08:44.413Z,98.26
2019-01-13T00:09:44.263Z,98.26
2019-01-13T00:11:37.621Z,97.88
2019-01-13T00:12:36.915Z,97.88
2019-01-13T00:14:29.703Z,97.97
2019-01-13T00:15:29.566Z,98.07
2019-01-13T00:17:22.351Z,97.88
2019-01-13T00:18:22.218Z,98.16
2019-01-13T00:20:14.983Z,97.02
2019-01-13T00:21:14.853Z,97.50
2019-01-13T00:23:07.689Z,97.78
2019-01-13T00:24:07.513Z,98.07
2019-01-13T00:26:00.381Z,98.16
2019-01-13T00:27:00.155Z,98.16
2019-01-13T00:28:53.023Z,98.54
2019-01-13T00:29:52.829Z,98.16
2019-01-13T00:31:45.571Z,98.07
2019-01-13T00:32:45.447Z,97.31
2019-01-13T00:34:38.218Z,98.26
2019-01-13T00:35:38.087Z,98.07
2019-01-13T00:37:30.897Z,98.16
2019-01-13T00:38:30.744Z,98.07
2019-01-13T00:40:23.649Z,98.54
2019-01-13T00:41:23.393Z,97.97
2019-01-13T00:43:16.169Z,97.88
2019-01-13T00:44:16.028Z,98.16
2019-01-13T00:46:08.816Z,97.97
2019-01-13T00:47:08.688Z,97.97
2019-01-13T00:49:01.456Z,98.16
2019-01-13T00:50:01.326Z,97.88
2019-01-13T00:51:54.098Z,98.07
2019-01-13T00:52:53.987Z,98.26
2019-01-13T00:54:46.762Z,98.16
2019-01-13T00:55:46.619Z,98.07
2019-01-13T00:57:39.393Z,97.41
2019-01-13T00:58:39.269Z,97.50
2019-01-13T01:00:32.057Z,97.50
2019-01-13T01:01:31.917Z,97.22
2019-01-13T01:03:24.801Z,97.22
2019-01-13T01:04:24.682Z,96.64
2019-01-13T01:06:17.458Z,96.64
2019-01-13T01:07:17.314Z,96.55
2019-01-13T01:09:10.612Z,96.83
2019-01-13T01:10:10.484Z,96.93
2019-01-13T01:12:03.238Z,96.93
2019-01-13T01:13:03.121Z,97.31
2019-01-13T01:14:55.995Z,98.45
2019-01-13T01:15:55.875Z,97.69
2019-01-13T01:17:48.637Z,97.22
2019-01-13T01:18:48.519Z,96.97
2019-01-13T01:20:41.278Z,96.97
2019-01-13T01:21:41.194Z,96.88
2019-01-13T01:23:33.932Z,96.97
2019-01-13T01:24:33.846Z,96.97
2019-01-13T01:26:26.653Z,97.07
2019-01-13T01:27:26.452Z,97.74
2019-01-13T01:29:19.226Z,98.02
2019-01-13T01:30:19.105Z,97.64
2019-01-13T01:32:11.893Z,98.59
2019-01-13T01:33:11.769Z,98.87
2019-01-13T01:35:04.632Z,98.68
2019-01-13T01:36:04.393Z,99.54
2019-01-13T01:37:57.256Z,99.73
2019-01-13T01:38:57.042Z,99.99
2019-01-13T01:40:49.811Z,99.99
2019-01-13T01:41:51.037Z,99.99
2019-01-13T01:43:42.460Z,99.82
2019-01-13T01:44:42.345Z,99.82
2019-01-13T01:46:35.107Z,99.73
2019-01-13T01:47:34.982Z,99.99
2019-01-13T01:49:27.770Z,99.99
2019-01-13T01:50:27.630Z,99.99
2019-01-13T01:52:20.401Z,99.99
2019-01-13T01:53:20.277Z,99.99
2019-01-13T01:55:13.657Z,99.99
2019-01-13T01:56:12.933Z,99.99
2019-01-13T01:58:05.715Z,99.99
2019-01-13T01:59:05.578Z,99.99
2019-01-13T02:00:58.505Z,99.99
2019-01-13T02:01:58.262Z,99.99
2019-01-13T02:03:51.187Z,99.99
2019-01-13T02:04:50.944Z,99.99
2019-01-13T02:06:43.777Z,99.99
2019-01-13T02:07:43.532Z,99.99
2019-01-13T02:09:36.290Z,99.99
2019-01-13T02:10:36.169Z,99.99
2019-01-13T02:12:28.958Z,99.99
2019-01-13T02:13:28.817Z,99.99
2019-01-13T02:15:21.580Z,99.99
2019-01-13T02:16:21.459Z,99.99
2019-01-13T02:18:14.244Z,99.99
2019-01-13T02:19:14.128Z,99.99
2019-01-13T02:21:07.384Z,99.87
2019-01-13T02:22:07.268Z,99.99
2019-01-13T02:24:00.034Z,99.99
2019-01-13T02:24:59.909Z,99.99
2019-01-13T02:26:52.719Z,99.99
2019-01-13T02:27:52.562Z,99.99
2019-01-13T02:29:45.321Z,99.99
2019-01-13T02:30:49.230Z,99.99
2019-01-13T02:32:37.989Z,99.99
2019-01-13T02:33:37.852Z,99.99
2019-01-13T02:35:30.625Z,99.99
2019-01-13T02:36:30.502Z,99.99
2019-01-13T02:38:23.270Z,99.87
2019-01-13T02:39:23.156Z,99.87
2019-01-13T02:41:15.931Z,99.97
2019-01-13T02:42:15.796Z,99.99
2019-01-13T02:44:08.583Z,99.99
2019-01-13T02:45:08.454Z,99.99
2019-01-13T02:47:01.308Z,99.99
2019-01-13T02:48:01.086Z,99.99
2019-01-13T02:49:53.882Z,99.99
2019-01-13T02:50:53.730Z,99.99
2019-01-13T02:52:46.519Z,99.99
2019-01-13T02:53:46.386Z,99.99
2019-01-13T02:55:39.715Z,99.99
2019-01-13T02:56:39.542Z,99.99
2019-01-13T02:58:32.311Z,99.97
2019-01-13T02:59:32.205Z,99.99
2019-01-13T03:01:25.069Z,99.99
2019-01-13T03:02:24.851Z,99.99
2019-01-13T03:04:17.625Z,99.97
2019-01-13T03:05:17.488Z,99.97
2019-01-13T03:07:10.266Z,99.97
2019-01-13T03:08:10.141Z,99.87
2019-01-13T03:10:03.015Z,99.99
2019-01-13T03:11:02.777Z,99.99
2019-01-13T03:12:55.564Z,99.99
2019-01-13T03:13:55.425Z,99.87
2019-01-13T03:15:48.211Z,99.99
2019-01-13T03:16:48.071Z,99.99
2019-01-13T03:18:40.938Z,99.87
2019-01-13T03:19:40.828Z,99.77
2019-01-13T03:21:33.687Z,99.87
2019-01-13T03:22:33.570Z,99.99
2019-01-13T03:24:26.448Z,99.99
2019-01-13T03:25:26.317Z,99.97
2019-01-13T03:27:19.198Z,99.77
2019-01-13T03:28:19.086Z,99.99
2019-01-13T03:30:11.949Z,99.99
2019-01-13T03:31:12.791Z,99.99
2019-01-13T03:33:04.701Z,99.99
2019-01-13T03:34:04.575Z,99.97
2019-01-13T03:35:57.443Z,99.83
2019-01-13T03:36:57.315Z,99.44
2019-01-13T03:38:50.221Z,99.64
2019-01-13T03:39:50.070Z,99.58
2019-01-13T03:41:42.944Z,99.58
2019-01-13T03:42:42.814Z,99.77
2019-01-13T03:44:35.691Z,99.40
2019-01-13T03:45:35.561Z,99.77
2019-01-13T03:47:28.437Z,99.21
2019-01-13T03:48:28.319Z,99.30
2019-01-13T03:50:21.215Z,99.99
2019-01-13T03:51:21.066Z,99.64
2019-01-13T03:53:13.946Z,99.40
2019-01-13T03:54:13.812Z,99.58
2019-01-13T03:56:06.684Z,99.77
2019-01-13T03:57:06.576Z,99.83
2019-01-13T03:58:59.463Z,99.49
2019-01-13T03:59:59.320Z,99.40
2019-01-13T04:01:52.227Z,99.77
2019-01-13T04:02:52.154Z,99.77
2019-01-13T04:04:44.939Z,99.40
2019-01-13T04:05:44.820Z,99.49
2019-01-13T04:07:37.705Z,99.97
2019-01-13T04:08:37.570Z,99.49
2019-01-13T04:10:30.784Z,99.58
2019-01-13T04:11:30.648Z,99.68
2019-01-13T04:13:23.517Z,99.49
2019-01-13T04:14:23.378Z,99.40
2019-01-13T04:16:16.756Z,99.58
2019-01-13T04:17:16.632Z,99.68
2019-01-13T04:19:09.506Z,99.11
2019-01-13T04:20:09.375Z,99.21
2019-01-13T04:22:02.274Z,99.58
2019-01-13T04:23:02.141Z,99.58
2019-01-13T04:24:55.026Z,99.58
2019-01-13T04:25:54.909Z,99.58
2019-01-13T04:27:47.782Z,99.68
2019-01-13T04:28:47.631Z,99.49
2019-01-13T04:30:40.522Z,99.68
2019-01-13T04:31:40.394Z,99.68
2019-01-13T04:33:33.263Z,99.58
2019-01-13T04:34:33.128Z,98.92
2019-01-13T04:36:26.009Z,99.77
2019-01-13T04:37:25.880Z,99.02
2019-01-13T04:39:18.766Z,99.02
2019-01-13T04:40:18.710Z,98.92
2019-01-13T04:42:11.514Z,99.40
2019-01-13T04:43:11.380Z,99.68
2019-01-13T04:45:04.268Z,98.83
2019-01-13T04:46:04.291Z,99.68
2019-01-13T04:47:57.001Z,99.49
2019-01-13T04:48:56.895Z,99.58
2019-01-13T04:50:49.767Z,99.40
2019-01-13T04:51:49.629Z,99.11
2019-01-13T04:53:42.501Z,98.92
2019-01-13T04:54:42.371Z,98.92
2019-01-13T04:56:35.252Z,99.02
2019-01-13T04:57:35.125Z,99.49
2019-01-13T04:59:28.001Z,99.02
2019-01-13T05:00:27.894Z,98.73
2019-01-13T05:02:20.775Z,98.92
2019-01-13T05:03:20.634Z,98.92
2019-01-13T05:05:13.506Z,99.40
2019-01-13T05:06:13.379Z,99.58
2019-01-13T05:08:06.249Z,99.02
2019-01-13T05:09:06.126Z,99.11
2019-01-13T05:10:58.997Z,98.83
2019-01-13T05:11:58.877Z,99.02
2019-01-13T05:13:51.766Z,99.87
2019-01-13T05:14:51.642Z,98.92
2019-01-13T05:16:44.505Z,98.64
2019-01-13T05:17:44.389Z,98.83
2019-01-13T05:19:37.247Z,98.92
2019-01-13T05:20:37.126Z,98.92
2019-01-13T05:22:29.996Z,98.92
2019-01-13T05:23:29.871Z,99.68
2019-01-13T05:25:22.749Z,99.02
2019-01-13T05:26:22.641Z,98.92
2019-01-13T05:28:15.500Z,98.07
2019-01-13T05:29:15.372Z,98.26
2019-01-13T05:31:08.272Z,99.02
2019-01-13T05:32:08.122Z,98.16
2019-01-13T05:34:00.999Z,98.92
2019-01-13T05:35:00.868Z,98.26
2019-01-13T05:36:53.751Z,98.45
2019-01-13T05:37:53.617Z,98.45
2019-01-13T05:39:46.505Z,98.45
2019-01-13T05:40:46.368Z,98.07
2019-01-13T05:42:39.267Z,98.92
2019-01-13T05:43:39.121Z,99.21
2019-01-13T05:45:31.992Z,98.83
2019-01-13T05:46:31.863Z,98.64
2019-01-13T05:48:24.747Z,98.97
2019-01-13T05:49:24.614Z,98.73
2019-01-13T05:51:17.490Z,99.02
2019-01-13T05:52:17.370Z,98.83
2019-01-13T05:54:10.240Z,98.83
2019-01-13T05:55:10.113Z,98.64
2019-01-13T05:57:03.013Z,99.02
2019-01-13T05:58:02.862Z,99.02
2019-01-13T05:59:55.742Z,99.30
2019-01-13T06:00:55.614Z,99.49
2019-01-13T06:02:48.498Z,99.73
2019-01-13T06:03:48.410Z,99.44
2019-01-13T06:05:41.264Z,98.59
2019-01-13T06:06:41.128Z,99.54
2019-01-13T06:08:33.999Z,98.97
2019-01-13T06:09:33.870Z,99.07
2019-01-13T06:11:26.761Z,98.97
2019-01-13T06:12:26.670Z,98.79
2019-01-13T06:14:19.510Z,98.97
2019-01-13T06:15:19.360Z,98.92
2019-01-13T06:17:12.242Z,99.49
2019-01-13T06:18:12.119Z,98.97
2019-01-13T06:20:05.010Z,99.07
2019-01-13T06:21:04.876Z,99.35
2019-01-13T06:22:57.738Z,98.69
2019-01-13T06:23:57.617Z,99.64
2019-01-13T06:25:50.502Z,99.07
2019-01-13T06:26:50.369Z,99.26
2019-01-13T06:28:43.238Z,98.79
2019-01-13T06:29:43.118Z,99.07
2019-01-13T06:31:36.002Z,98.73
2019-01-13T06:32:35.858Z,99.21
2019-01-13T06:34:28.765Z,99.07
2019-01-13T06:35:28.624Z,99.54
2019-01-13T06:37:21.495Z,98.97
2019-01-13T06:38:21.359Z,98.69
2019-01-13T06:40:14.249Z,99.16
2019-01-13T06:41:14.112Z,99.11
2019-01-13T06:43:07.004Z,98.97
2019-01-13T06:44:06.875Z,99.21
2019-01-13T06:45:59.813Z,99.16
2019-01-13T06:46:59.686Z,98.79
2019-01-13T06:48:52.584Z,98.40
2019-01-13T06:49:52.384Z,99.07
2019-01-13T06:51:45.239Z,99.16
2019-01-13T06:52:45.106Z,99.16
2019-01-13T06:54:37.991Z,98.88
2019-01-13T06:55:37.880Z,98.31
2019-01-13T06:57:30.737Z,98.40
2019-01-13T06:58:30.630Z,98.21
2019-01-13T07:00:23.514Z,98.79
2019-01-13T07:01:23.463Z,98.97
2019-01-13T07:03:16.239Z,98.97
2019-01-13T07:04:16.117Z,98.12
2019-01-13T07:06:08.991Z,98.40
2019-01-13T07:07:08.866Z,98.31
2019-01-13T07:09:01.777Z,98.59
2019-01-13T07:10:01.622Z,99.07
2019-01-13T07:11:54.505Z,98.12
2019-01-13T07:12:54.371Z,98.12
2019-01-13T07:14:47.255Z,98.79
2019-01-13T07:15:47.108Z,98.12
2019-01-13T07:17:39.984Z,98.31
2019-01-13T07:18:39.858Z,98.31
2019-01-13T07:20:32.747Z,98.50
2019-01-13T07:21:32.619Z,98.31
2019-01-13T07:23:25.487Z,98.59
2019-01-13T07:24:25.358Z,98.21
2019-01-13T07:26:18.290Z,98.02
2019-01-13T07:27:18.120Z,98.02
2019-01-13T07:29:10.994Z,97.55
2019-01-13T07:30:10.854Z,97.45
2019-01-13T07:32:10.595Z,97.69
2019-01-13T07:33:03.626Z,97.55
2019-01-13T07:34:56.476Z,97.55
2019-01-13T07:35:56.359Z,97.64
2019-01-13T07:37:49.346Z,97.36
2019-01-13T07:38:49.228Z,97.74
2019-01-13T07:40:42.091Z,97.74
2019-01-13T07:41:41.953Z,97.60
2019-01-13T07:43:34.830Z,97.50
2019-01-13T07:44:34.703Z,97.60
2019-01-13T07:46:27.591Z,97.78
2019-01-13T07:47:27.460Z,97.69
2019-01-13T07:49:20.346Z,97.78
2019-01-13T07:50:20.199Z,97.31
2019-01-13T07:52:13.118Z,98.26
2019-01-13T07:53:12.952Z,97.69
2019-01-13T07:55:05.829Z,98.16
2019-01-13T07:56:05.740Z,98.45
2019-01-13T07:57:58.578Z,98.69
2019-01-13T07:58:58.476Z,98.59
2019-01-13T08:00:51.896Z,98.16
2019-01-13T08:01:51.226Z,98.21
2019-01-13T08:03:44.212Z,98.79
2019-01-13T08:04:44.064Z,98.31
2019-01-13T08:06:36.959Z,99.11
2019-01-13T08:07:36.834Z,98.31
2019-01-13T08:09:29.703Z,98.59
2019-01-13T08:10:29.556Z,98.50
2019-01-13T08:12:22.431Z,98.64
2019-01-13T08:13:22.301Z,98.07
2019-01-13T08:15:15.187Z,98.26
2019-01-13T08:16:15.052Z,98.64
2019-01-13T08:18:07.847Z,98.35
2019-01-13T08:19:07.700Z,98.73
2019-01-13T08:21:00.469Z,98.73
2019-01-13T08:22:00.359Z,98.83
2019-01-13T08:23:53.123Z,98.35
2019-01-13T08:24:52.993Z,98.73
2019-01-13T08:26:45.787Z,98.26
2019-01-13T08:27:45.650Z,98.64
2019-01-13T08:29:38.417Z,99.16
2019-01-13T08:30:38.322Z,98.40
2019-01-13T08:32:31.056Z,98.45
2019-01-13T08:33:30.948Z,98.31
2019-01-13T08:35:23.708Z,98.31
2019-01-13T08:36:23.590Z,98.50
2019-01-13T08:38:16.366Z,99.07
2019-01-13T08:39:16.260Z,99.07
2019-01-13T08:41:09.012Z,98.97
2019-01-13T08:42:08.873Z,99.16
2019-01-13T08:44:01.657Z,98.40
2019-01-13T08:45:01.537Z,99.16
2019-01-13T08:46:54.302Z,98.31
2019-01-13T08:47:54.186Z,98.50
2019-01-13T08:49:46.942Z,99.26
2019-01-13T08:50:46.836Z,99.54
2019-01-13T08:52:39.595Z,99.16
2019-01-13T08:53:39.490Z,98.79
2019-01-13T08:55:32.239Z,99.26
2019-01-13T08:56:32.259Z,99.07
2019-01-13T08:58:24.883Z,98.97
2019-01-13T08:59:24.768Z,98.97
2019-01-13T09:01:17.642Z,99.16
2019-01-13T09:02:17.529Z,98.40
2019-01-13T09:04:10.529Z,99.16
2019-01-13T09:05:10.280Z,99.07
2019-01-13T09:07:03.037Z,98.50
2019-01-13T09:08:02.911Z,98.97
2019-01-13T09:09:55.697Z,98.50
2019-01-13T09:10:55.557Z,99.26
2019-01-13T09:12:48.331Z,98.97
2019-01-13T09:13:48.201Z,98.31
2019-01-13T09:15:41.501Z,98.50
2019-01-13T09:16:41.371Z,98.50
2019-01-13T09:18:34.132Z,98.59
2019-01-13T09:19:34.007Z,98.55
2019-01-13T09:21:26.785Z,98.55
2019-01-13T09:22:26.668Z,98.17
2019-01-13T09:24:19.943Z,98.26
2019-01-13T09:25:19.814Z,98.55
2019-01-13T09:27:12.582Z,98.17
2019-01-13T09:28:12.461Z,98.26
2019-01-13T09:30:05.743Z,98.26
2019-01-13T09:31:05.622Z,98.26
2019-01-13T09:32:58.408Z,97.97
2019-01-13T09:33:58.279Z,98.36
2019-01-13T09:35:51.582Z,98.26
2019-01-13T09:36:51.429Z,98.36
2019-01-13T09:38:44.224Z,98.17
2019-01-13T09:39:44.085Z,98.55
2019-01-13T09:41:36.866Z,98.17
2019-01-13T09:42:36.730Z,98.07
2019-01-13T09:44:29.524Z,97.88
2019-01-13T09:45:29.371Z,98.26
2019-01-13T09:47:22.662Z,98.55
2019-01-13T09:48:22.568Z,98.17
2019-01-13T09:50:15.883Z,98.17
2019-01-13T09:51:15.694Z,98.26
2019-01-13T09:53:08.476Z,98.55
2019-01-13T09:54:08.355Z,98.36
2019-01-13T09:56:01.131Z,98.74
2019-01-13T09:57:00.989Z,99.02
2019-01-13T09:58:54.280Z,98.55
2019-01-13T09:59:54.161Z,98.26
2019-01-13T10:01:47.434Z,98.55
2019-01-13T10:02:47.303Z,98.55
2019-01-13T10:04:40.195Z,98.45
2019-01-13T10:05:40.563Z,98.36
2019-01-13T10:07:32.975Z,97.88
2019-01-13T10:08:32.735Z,99.02
2019-01-13T10:10:25.488Z,98.74
2019-01-13T10:11:25.406Z,98.83
2019-01-13T10:13:18.230Z,98.26
2019-01-13T10:14:18.094Z,98.83
2019-01-13T10:16:11.399Z,98.36
2019-01-13T10:17:11.263Z,98.74
2019-01-13T10:19:04.057Z,98.60
2019-01-13T10:20:03.908Z,98.22
2019-01-13T10:21:56.781Z,98.88
2019-01-13T10:22:56.665Z,98.79
2019-01-13T10:24:49.566Z,98.41
2019-01-13T10:25:49.298Z,98.88
2019-01-13T10:27:42.078Z,98.88
2019-01-13T10:28:41.953Z,98.41
2019-01-13T10:30:34.836Z,98.50
2019-01-13T10:31:34.694Z,98.50
2019-01-13T10:33:27.495Z,98.50
2019-01-13T10:34:27.344Z,97.55
2019-01-13T10:36:20.122Z,98.31
2019-01-13T10:37:19.997Z,98.50
2019-01-13T10:39:12.756Z,98.22
2019-01-13T10:40:12.637Z,98.12
2019-01-13T10:42:05.413Z,97.93
2019-01-13T10:43:05.291Z,97.60
2019-01-13T10:44:58.084Z,97.64
2019-01-13T10:45:57.931Z,98.03
2019-01-13T10:47:50.821Z,98.45
2019-01-13T10:48:50.580Z,97.69
2019-01-13T10:50:43.371Z,97.97
2019-01-13T10:51:43.261Z,98.07
2019-01-13T10:53:36.024Z,97.97
2019-01-13T10:54:35.889Z,98.07
2019-01-13T10:56:28.669Z,98.55
2019-01-13T10:57:28.521Z,98.26
2019-01-13T10:59:21.310Z,98.74
2019-01-13T11:00:21.174Z,98.74
2019-01-13T11:02:14.054Z,98.45
2019-01-13T11:03:13.819Z,98.31
2019-01-13T11:05:06.730Z,98.45
2019-01-13T11:06:06.663Z,98.64
2019-01-13T11:07:59.550Z,98.64
2019-01-13T11:08:59.425Z,98.31
2019-01-13T11:10:52.306Z,99.07
2019-01-13T11:11:52.186Z,99.26
2019-01-13T11:13:44.998Z,99.26
2019-01-13T11:14:44.812Z,99.26
2019-01-13T11:16:37.704Z,99.07
2019-01-13T11:17:37.480Z,99.02
2019-01-13T11:19:30.347Z,98.97
2019-01-13T11:20:30.261Z,98.79
2019-01-13T11:22:23.009Z,99.64
2019-01-13T11:23:22.870Z,98.88
2019-01-13T11:25:15.656Z,99.64
2019-01-13T11:26:15.520Z,99.36
2019-01-13T11:28:08.397Z,99.55
2019-01-13T11:29:08.412Z,99.64
2019-01-13T11:31:01.117Z,98.79
2019-01-13T11:32:00.914Z,99.55
2019-01-13T11:33:54.662Z,99.36
2019-01-13T11:34:53.567Z,99.64
2019-01-13T11:36:46.327Z,99.45
2019-01-13T11:37:46.213Z,99.64
2019-01-13T11:39:38.980Z,99.74
2019-01-13T11:40:38.854Z,99.45
2019-01-13T11:42:31.639Z,99.93
2019-01-13T11:43:31.493Z,99.55
2019-01-13T11:45:24.302Z,99.74
2019-01-13T11:46:24.164Z,99.36
2019-01-13T11:48:17.013Z,99.99
2019-01-13T11:49:16.884Z,99.99
2019-01-13T11:51:09.660Z,99.99
2019-01-13T11:52:09.540Z,99.99
2019-01-13T11:54:02.542Z,99.99
2019-01-13T11:55:02.188Z,99.99
2019-01-13T11:56:54.977Z,99.99
2019-01-13T11:57:54.860Z,99.84
2019-01-13T11:59:48.659Z,99.93
2019-01-13T12:00:47.488Z,99.99
2019-01-13T12:02:40.254Z,99.99
2019-01-13T12:03:40.122Z,99.98
2019-01-13T12:05:33.426Z,99.99
2019-01-13T12:06:33.286Z,99.99
2019-01-13T12:08:26.162Z,99.99
2019-01-13T12:09:26.161Z,99.93
2019-01-13T12:11:18.970Z,99.98
2019-01-13T12:12:18.825Z,99.99
2019-01-13T12:14:12.613Z,99.99
2019-01-13T12:15:12.461Z,99.99
2019-01-13T12:17:05.243Z,99.98
2019-01-13T12:18:05.121Z,99.99
2019-01-13T12:19:57.953Z,99.99
2019-01-13T12:20:57.770Z,99.99
2019-01-13T12:22:50.753Z,99.99
2019-01-13T12:23:50.457Z,99.99
2019-01-13T12:25:43.450Z,99.88
2019-01-13T12:26:43.082Z,99.98
2019-01-13T12:28:36.388Z,99.88
2019-01-13T12:29:35.894Z,99.50
2019-01-13T12:31:28.813Z,99.88
2019-01-13T12:32:28.663Z,99.88
2019-01-13T12:34:21.474Z,99.41
2019-01-13T12:35:21.990Z,99.41
2019-01-13T12:37:14.064Z,99.50
2019-01-13T12:38:13.952Z,99.31
2019-01-13T12:40:06.738Z,99.60
2019-01-13T12:41:06.602Z,99.69
2019-01-13T12:42:59.873Z,99.79
2019-01-13T12:43:59.742Z,99.50
2019-01-13T12:45:52.521Z,99.99
2019-01-13T12:46:52.402Z,99.99
2019-01-13T12:48:45.281Z,99.99
2019-01-13T12:49:45.037Z,99.99
2019-01-13T12:51:37.835Z,99.99
2019-01-13T12:52:37.692Z,99.99
2019-01-13T12:54:30.484Z,99.99
2019-01-13T12:55:30.340Z,99.99
2019-01-13T12:57:23.113Z,99.99
2019-01-13T12:58:23.016Z,99.99
2019-01-13T13:00:15.789Z,99.99
2019-01-13T13:01:15.642Z,99.99
2019-01-13T13:03:08.415Z,99.99
2019-01-13T13:04:08.275Z,99.99
2019-01-13T13:06:01.246Z,99.99
2019-01-13T13:07:01.075Z,99.99
2019-01-13T13:08:53.918Z,99.99
2019-01-13T13:09:53.778Z,99.99
2019-01-13T13:11:46.657Z,99.99
2019-01-13T13:12:46.421Z,99.99
2019-01-13T13:14:39.202Z,99.99
2019-01-13T13:15:39.074Z,99.99
2019-01-13T13:17:31.851Z,99.99
2019-01-13T13:18:31.720Z,99.99
2019-01-13T13:20:24.598Z,99.99
2019-01-13T13:21:24.380Z,99.99
2019-01-13T13:23:17.341Z,99.99
2019-01-13T13:24:17.083Z,99.99
2019-01-13T13:26:09.985Z,99.99
2019-01-13T13:27:09.921Z,99.99
2019-01-13T13:29:02.648Z,99.99
2019-01-13T13:30:02.542Z,99.99
2019-01-13T13:31:55.395Z,99.99
2019-01-13T13:32:55.275Z,99.99
2019-01-13T13:34:48.034Z,99.99
2019-01-13T13:35:47.919Z,99.99
2019-01-13T13:37:40.686Z,99.99
2019-01-13T13:38:40.573Z,99.99
2019-01-13T13:40:33.381Z,99.99
2019-01-13T13:41:33.244Z,99.99
2019-01-13T13:43:26.107Z,99.99
2019-01-13T13:44:25.989Z,99.99
2019-01-13T13:46:18.833Z,99.99
2019-01-13T13:47:18.717Z,99.99
2019-01-13T13:49:11.677Z,99.99
2019-01-13T13:50:11.540Z,99.99
2019-01-13T13:52:04.358Z,99.99
2019-01-13T13:53:04.107Z,99.99
2019-01-13T13:54:56.971Z,99.99
2019-01-13T13:55:56.855Z,99.99
2019-01-13T13:57:49.642Z,99.99
2019-01-13T13:58:49.493Z,99.99
2019-01-13T14:00:42.275Z,99.99
2019-01-13T14:01:42.147Z,99.99
2019-01-13T14:03:35.515Z,99.99
2019-01-13T14:04:34.785Z,99.99
2019-01-13T14:06:27.600Z,99.99
2019-01-13T14:07:27.441Z,99.99
2019-01-13T14:09:20.222Z,99.99
2019-01-13T14:10:20.088Z,99.99
2019-01-13T14:12:12.964Z,99.99
2019-01-13T14:13:12.736Z,99.99
2019-01-13T14:15:05.550Z,99.99
2019-01-13T14:16:05.379Z,99.99
2019-01-13T14:17:58.149Z,99.99
2019-01-13T14:18:58.023Z,99.99
2019-01-13T14:20:50.910Z,99.99
2019-01-13T14:21:50.781Z,99.99
2019-01-13T14:23:43.549Z,99.99
2019-01-13T14:24:43.423Z,99.99
2019-01-13T14:26:36.193Z,99.99
2019-01-13T14:27:36.073Z,99.99
2019-01-13T14:29:28.959Z,99.99
2019-01-13T14:30:28.879Z,99.99
2019-01-13T14:32:21.742Z,99.99
2019-01-13T14:33:21.609Z,99.99
2019-01-13T14:35:14.473Z,99.99
2019-01-13T14:36:14.287Z,99.99
2019-01-13T14:38:07.121Z,99.99
2019-01-13T14:39:06.963Z,99.99
2019-01-13T14:40:59.864Z,99.99
2019-01-13T14:41:59.769Z,99.99
2019-01-13T14:43:52.646Z,99.99
2019-01-13T14:44:52.475Z,99.99
2019-01-13T14:46:45.252Z,99.99
2019-01-13T14:47:45.122Z,99.99
2019-01-13T14:49:37.900Z,99.99
2019-01-13T14:50:37.774Z,99.99
2019-01-13T14:52:31.189Z,99.99
2019-01-13T14:53:30.725Z,99.99
2019-01-13T14:55:23.633Z,99.99
2019-01-13T14:56:23.542Z,99.99
2019-01-13T14:58:16.346Z,99.99
2019-01-13T14:59:16.210Z,99.99
2019-01-13T15:01:09.081Z,99.99
2019-01-13T15:02:08.957Z,99.99
2019-01-13T15:04:01.740Z,99.99
2019-01-13T15:05:01.639Z,99.99
2019-01-13T15:06:54.384Z,99.99
2019-01-13T15:07:54.252Z,99.99
2019-01-13T15:09:47.030Z,99.99
2019-01-13T15:10:46.909Z,99.99
2019-01-13T15:12:40.179Z,99.99
2019-01-13T15:13:40.064Z,99.99
2019-01-13T15:15:32.829Z,99.99
2019-01-13T15:16:32.949Z,99.99
2019-01-13T15:18:25.579Z,99.99
2019-01-13T15:19:25.472Z,99.99
2019-01-13T15:21:18.330Z,99.99
2019-01-13T15:22:18.209Z,99.99
2019-01-13T15:24:11.107Z,99.99
2019-01-13T15:25:10.961Z,99.99
2019-01-13T15:27:03.829Z,99.99
2019-01-13T15:28:03.716Z,99.99
2019-01-13T15:29:56.991Z,99.99
2019-01-13T15:30:56.885Z,99.99
2019-01-13T15:32:50.284Z,99.99
2019-01-13T15:33:50.140Z,99.99
2019-01-13T15:35:43.129Z,99.99
2019-01-13T15:36:42.892Z,99.99
2019-01-13T15:38:35.760Z,99.99
2019-01-13T15:39:35.675Z,99.99
2019-01-13T15:41:28.619Z,99.99
2019-01-13T15:42:28.384Z,99.99
2019-01-13T15:44:21.785Z,99.99
2019-01-13T15:45:21.154Z,99.99
2019-01-13T15:47:14.539Z,99.99
2019-01-13T15:48:14.387Z,99.99
2019-01-13T15:50:09.120Z,99.99
2019-01-13T15:51:08.987Z,99.99
2019-01-13T15:53:03.301Z,99.99
2019-01-13T15:54:03.175Z,99.99
2019-01-13T15:55:56.445Z,99.99
2019-01-13T15:56:56.319Z,99.99
2019-01-13T15:58:49.195Z,99.99
2019-01-13T15:59:49.102Z,99.99
2019-01-13T16:01:42.472Z,99.99
2019-01-13T16:02:42.327Z,99.99
2019-01-13T16:04:35.261Z,99.99
2019-01-13T16:05:35.199Z,99.99
2019-01-13T16:07:27.977Z,99.99
2019-01-13T16:08:27.864Z,99.99
2019-01-13T16:10:20.712Z,99.99
2019-01-13T16:11:20.594Z,99.99
2019-01-13T16:13:13.447Z,99.99
2019-01-13T16:14:13.344Z,99.99
2019-01-13T16:16:07.738Z,99.99
2019-01-13T16:17:07.683Z,99.99
2019-01-13T16:19:01.007Z,99.99
2019-01-13T16:20:00.889Z,99.99
2019-01-13T16:21:54.633Z,99.99
2019-01-13T16:22:53.643Z,99.99
2019-01-13T16:24:51.535Z,99.99
2019-01-13T16:25:51.398Z,99.99
2019-01-13T16:27:44.972Z,99.99
2019-01-13T16:28:44.176Z,99.99
2019-01-13T16:30:37.054Z,99.99
2019-01-13T16:31:36.970Z,99.99
2019-01-13T16:33:31.180Z,99.99
2019-01-13T16:34:30.035Z,99.99
2019-01-13T16:36:23.178Z,99.99
2019-01-13T16:37:22.905Z,99.99
2019-01-13T16:39:15.827Z,99.99
2019-01-13T16:40:15.662Z,99.99
2019-01-13T16:42:10.021Z,99.99
2019-01-13T16:43:09.996Z,99.99
2019-01-13T16:45:03.154Z,99.99
2019-01-13T16:46:02.771Z,99.99
2019-01-13T16:47:55.483Z,99.99
2019-01-13T16:48:55.352Z,99.99
2019-01-13T16:50:48.756Z,99.99
2019-01-13T16:51:48.608Z,99.99
2019-01-13T16:53:41.496Z,99.99
2019-01-13T16:54:41.363Z,99.99
2019-01-13T16:56:34.289Z,99.99
2019-01-13T16:57:34.186Z,99.99
2019-01-13T16:59:26.996Z,99.99
2019-01-13T17:00:26.858Z,99.99
2019-01-13T17:02:19.760Z,99.99
2019-01-13T17:03:19.593Z,99.99
2019-01-13T17:05:12.476Z,99.99
2019-01-13T17:06:12.352Z,99.99
2019-01-13T17:08:05.217Z,99.99
2019-01-13T17:09:05.095Z,99.99
2019-01-13T17:10:57.981Z,99.99
2019-01-13T17:11:57.842Z,99.99
2019-01-13T17:13:51.227Z,99.99
2019-01-13T17:14:51.142Z,99.99
2019-01-13T17:16:43.998Z,99.99
2019-01-13T17:17:43.884Z,99.99
2019-01-13T17:19:36.750Z,99.99
2019-01-13T17:20:36.624Z,99.99
2019-01-13T17:22:29.513Z,99.99
2019-01-13T17:23:29.357Z,99.99
2019-01-13T17:25:22.244Z,99.99
2019-01-13T17:26:22.308Z,99.99
2019-01-13T17:28:14.979Z,99.99
2019-01-13T17:29:14.868Z,99.99
2019-01-13T17:31:07.726Z,99.99
2019-01-13T17:32:07.673Z,99.99
2019-01-13T17:34:00.481Z,99.99
2019-01-13T17:35:00.348Z,99.99
2019-01-13T17:36:53.257Z,99.99
2019-01-13T17:37:53.132Z,99.99
2019-01-13T17:39:45.977Z,99.99
2019-01-13T17:40:45.861Z,99.99
2019-01-13T17:42:39.737Z,99.99
2019-01-13T17:43:39.451Z,99.99
2019-01-13T17:45:31.480Z,99.99
2019-01-13T17:46:31.352Z,99.99
2019-01-13T17:48:24.234Z,99.99
2019-01-13T17:49:24.112Z,99.99
2019-01-13T17:51:17.002Z,99.84
2019-01-13T17:52:16.853Z,99.99
2019-01-13T17:54:09.929Z,99.99
2019-01-13T17:55:09.802Z,99.99
2019-01-13T17:57:02.686Z,99.99
2019-01-13T17:58:02.614Z,99.99
2019-01-13T17:59:55.438Z,99.99
2019-01-13T18:00:55.319Z,99.99
2019-01-13T18:02:48.249Z,99.99
2019-01-13T18:03:48.106Z,99.99
2019-01-13T18:05:41.044Z,99.99
2019-01-13T18:06:41.127Z,99.99
2019-01-13T18:08:34.413Z,99.99
2019-01-13T18:09:33.655Z,99.99
2019-01-13T18:11:26.552Z,99.99
2019-01-13T18:12:26.668Z,99.99
2019-01-13T18:14:19.343Z,99.99
2019-01-13T18:15:19.151Z,99.99
2019-01-13T18:17:12.098Z,99.99
2019-01-13T18:18:11.901Z,99.99
2019-01-13T18:20:04.799Z,99.99
2019-01-13T18:21:04.657Z,99.99
2019-01-13T18:22:57.547Z,99.99
2019-01-13T18:23:57.406Z,99.99
2019-01-13T18:25:50.280Z,99.99
2019-01-13T18:26:50.162Z,99.99
2019-01-13T18:28:42.946Z,99.99
2019-01-13T18:29:42.804Z,99.99
2019-01-13T18:31:35.690Z,99.99